sensor_id;sensor_type;location;lat;lon;timestamp;P1;durP1;ratioP1;P2;durP2;ratioP2
16804;SDS011;8520;50.102;20.010;2023-02-01T00:00:55;40.57;;;38.67;;
16804;SDS011;8520;50.102;20.010;2023-02-01T00:03:23;41.57;;;39.47;;
16804;SDS011;8520;50.102;20.010;2023-02-01T00:05:55;42.23;;;40.07;;
16804;SDS011;8520;50.102;20.010;2023-02-01T00:08:24;41.33;;;39.13;;
16804;SDS011;8520;50.102;20.010;2023-02-01T00:10:58;41.50;;;39.33;;
16804;SDS011;8520;50.102;20.010;2023-02-01T00:13:28;40.70;;;38.60;;
16804;SDS011;8520;50.102;20.010;2023-02-01T00:16:04;40.60;;;38.50;;
16804;SDS011;8520;50.102;20.010;2023-02-01T00:18:33;41.33;;;39.07;;
16804;SDS011;8520;50.102;20.010;2023-02-01T00:21:02;40.73;;;38.50;;
16804;SDS011;8520;50.102;20.010;2023-02-01T00:23:31;39.93;;;37.83;;
16804;SDS011;8520;50.102;20.010;2023-02-01T00:26:02;40.37;;;38.17;;
16804;SDS011;8520;50.102;20.010;2023-02-01T00:28:31;41.13;;;39.03;;
16804;SDS011;8520;50.102;20.010;2023-02-01T00:31:00;41.00;;;38.80;;
16804;SDS011;8520;50.102;20.010;2023-02-01T00:33:31;42.67;;;40.37;;
16804;SDS011;8520;50.102;20.010;2023-02-01T00:36:00;42.77;;;40.47;;
16804;SDS011;8520;50.102;20.010;2023-02-01T00:38:29;42.03;;;39.90;;
16804;SDS011;8520;50.102;20.010;2023-02-01T00:41:02;42.23;;;39.97;;
16804;SDS011;8520;50.102;20.010;2023-02-01T00:43:33;42.40;;;40.10;;
16804;SDS011;8520;50.102;20.010;2023-02-01T00:46:02;42.07;;;39.87;;
16804;SDS011;8520;50.102;20.010;2023-02-01T00:48:30;41.53;;;39.43;;
16804;SDS011;8520;50.102;20.010;2023-02-01T00:50:59;41.37;;;39.20;;
16804;SDS011;8520;50.102;20.010;2023-02-01T00:53:28;41.80;;;39.70;;
16804;SDS011;8520;50.102;20.010;2023-02-01T00:55:57;41.73;;;39.57;;
16804;SDS011;8520;50.102;20.010;2023-02-01T00:58:27;40.50;;;38.50;;
16804;SDS011;8520;50.102;20.010;2023-02-01T01:01:03;40.73;;;38.70;;
16804;SDS011;8520;50.102;20.010;2023-02-01T01:03:33;39.37;;;37.47;;
16804;SDS011;8520;50.102;20.010;2023-02-01T01:06:04;40.07;;;37.97;;
16804;SDS011;8520;50.102;20.010;2023-02-01T01:08:34;38.33;;;36.53;;
16804;SDS011;8520;50.102;20.010;2023-02-01T01:11:06;38.40;;;36.60;;
16804;SDS011;8520;50.102;20.010;2023-02-01T01:13:36;38.17;;;36.23;;
16804;SDS011;8520;50.102;20.010;2023-02-01T01:16:06;36.97;;;35.27;;
16804;SDS011;8520;50.102;20.010;2023-02-01T01:18:36;36.87;;;35.07;;
16804;SDS011;8520;50.102;20.010;2023-02-01T01:21:05;36.00;;;34.20;;
16804;SDS011;8520;50.102;20.010;2023-02-01T01:23:35;34.93;;;33.13;;
16804;SDS011;8520;50.102;20.010;2023-02-01T01:26:06;34.73;;;33.03;;
16804;SDS011;8520;50.102;20.010;2023-02-01T01:28:37;34.17;;;32.47;;
16804;SDS011;8520;50.102;20.010;2023-02-01T01:31:07;33.87;;;32.10;;
16804;SDS011;8520;50.102;20.010;2023-02-01T01:33:36;33.63;;;31.83;;
16804;SDS011;8520;50.102;20.010;2023-02-01T01:36:05;33.20;;;31.60;;
16804;SDS011;8520;50.102;20.010;2023-02-01T01:38:34;33.20;;;31.60;;
16804;SDS011;8520;50.102;20.010;2023-02-01T01:41:03;33.93;;;32.33;;
16804;SDS011;8520;50.102;20.010;2023-02-01T01:43:47;35.57;;;33.80;;
16804;SDS011;8520;50.102;20.010;2023-02-01T01:46:18;35.17;;;33.57;;
16804;SDS011;8520;50.102;20.010;2023-02-01T01:48:49;35.00;;;33.33;;
16804;SDS011;8520;50.102;20.010;2023-02-01T01:51:21;33.73;;;32.23;;
16804;SDS011;8520;50.102;20.010;2023-02-01T01:53:58;32.40;;;30.93;;
16804;SDS011;8520;50.102;20.010;2023-02-01T01:56:30;32.17;;;30.77;;
16804;SDS011;8520;50.102;20.010;2023-02-01T01:59:02;31.40;;;30.00;;
16804;SDS011;8520;50.102;20.010;2023-02-01T02:01:32;31.40;;;30.10;;
16804;SDS011;8520;50.102;20.010;2023-02-01T02:04:00;31.90;;;30.47;;
16804;SDS011;8520;50.102;20.010;2023-02-01T02:06:37;32.23;;;30.80;;
16804;SDS011;8520;50.102;20.010;2023-02-01T02:09:11;34.47;;;32.93;;
16804;SDS011;8520;50.102;20.010;2023-02-01T02:11:40;34.97;;;33.43;;
16804;SDS011;8520;50.102;20.010;2023-02-01T02:14:11;35.63;;;34.03;;
16804;SDS011;8520;50.102;20.010;2023-02-01T02:17:03;36.90;;;35.20;;
16804;SDS011;8520;50.102;20.010;2023-02-01T02:19:48;37.70;;;36.00;;
16804;SDS011;8520;50.102;20.010;2023-02-01T02:22:45;37.70;;;36.00;;
16804;SDS011;8520;50.102;20.010;2023-02-01T02:25:35;36.83;;;35.03;;
16804;SDS011;8520;50.102;20.010;2023-02-01T02:28:36;36.53;;;34.67;;
16804;SDS011;8520;50.102;20.010;2023-02-01T02:31:28;34.53;;;32.73;;
16804;SDS011;8520;50.102;20.010;2023-02-01T02:34:16;33.40;;;31.53;;
16804;SDS011;8520;50.102;20.010;2023-02-01T02:36:50;30.13;;;28.70;;
16804;SDS011;8520;50.102;20.010;2023-02-01T02:39:29;29.40;;;28.00;;
16804;SDS011;8520;50.102;20.010;2023-02-01T02:42:08;28.47;;;27.07;;
16804;SDS011;8520;50.102;20.010;2023-02-01T02:45:01;28.77;;;27.17;;
16804;SDS011;8520;50.102;20.010;2023-02-01T02:48:01;26.80;;;25.60;;
16804;SDS011;8520;50.102;20.010;2023-02-01T02:50:40;26.23;;;24.63;;
16804;SDS011;8520;50.102;20.010;2023-02-01T02:53:32;25.97;;;24.57;;
16804;SDS011;8520;50.102;20.010;2023-02-01T02:56:22;25.87;;;24.30;;
16804;SDS011;8520;50.102;20.010;2023-02-01T02:59:11;24.57;;;23.27;;
16804;SDS011;8520;50.102;20.010;2023-02-01T03:01:59;24.33;;;22.93;;
16804;SDS011;8520;50.102;20.010;2023-02-01T03:04:45;24.37;;;22.90;;
16804;SDS011;8520;50.102;20.010;2023-02-01T03:07:42;23.60;;;22.17;;
16804;SDS011;8520;50.102;20.010;2023-02-01T03:10:17;22.83;;;21.53;;
16804;SDS011;8520;50.102;20.010;2023-02-01T03:12:52;22.83;;;21.47;;
16804;SDS011;8520;50.102;20.010;2023-02-01T03:15:26;23.13;;;21.73;;
16804;SDS011;8520;50.102;20.010;2023-02-01T03:17:59;21.90;;;20.63;;
16804;SDS011;8520;50.102;20.010;2023-02-01T03:20:31;22.00;;;20.70;;
16804;SDS011;8520;50.102;20.010;2023-02-01T03:23:01;21.83;;;20.57;;
16804;SDS011;8520;50.102;20.010;2023-02-01T03:25:33;21.47;;;19.93;;
16804;SDS011;8520;50.102;20.010;2023-02-01T03:28:03;21.90;;;20.40;;
16804;SDS011;8520;50.102;20.010;2023-02-01T03:30:36;20.30;;;19.10;;
16804;SDS011;8520;50.102;20.010;2023-02-01T03:33:07;20.87;;;19.67;;
16804;SDS011;8520;50.102;20.010;2023-02-01T03:35:42;20.90;;;19.50;;
16804;SDS011;8520;50.102;20.010;2023-02-01T03:38:20;19.87;;;18.73;;
16804;SDS011;8520;50.102;20.010;2023-02-01T03:40:52;20.50;;;19.20;;
16804;SDS011;8520;50.102;20.010;2023-02-01T03:43:27;20.70;;;19.60;;
16804;SDS011;8520;50.102;20.010;2023-02-01T03:46:03;21.70;;;20.40;;
16804;SDS011;8520;50.102;20.010;2023-02-01T03:48:37;22.53;;;21.23;;
16804;SDS011;8520;50.102;20.010;2023-02-01T03:51:08;23.00;;;21.70;;
16804;SDS011;8520;50.102;20.010;2023-02-01T03:53:39;23.00;;;21.80;;
16804;SDS011;8520;50.102;20.010;2023-02-01T03:56:09;23.90;;;22.70;;
16804;SDS011;8520;50.102;20.010;2023-02-01T03:58:38;24.27;;;22.83;;
16804;SDS011;8520;50.102;20.010;2023-02-01T04:01:06;24.73;;;23.43;;
16804;SDS011;8520;50.102;20.010;2023-02-01T04:03:37;25.90;;;24.30;;
16804;SDS011;8520;50.102;20.010;2023-02-01T04:06:05;25.10;;;23.53;;
16804;SDS011;8520;50.102;20.010;2023-02-01T04:08:35;25.77;;;24.30;;
16804;SDS011;8520;50.102;20.010;2023-02-01T04:11:04;25.40;;;24.00;;
16804;SDS011;8520;50.102;20.010;2023-02-01T04:13:32;25.80;;;24.23;;
16804;SDS011;8520;50.102;20.010;2023-02-01T04:16:00;25.33;;;23.90;;
16804;SDS011;8520;50.102;20.010;2023-02-01T04:18:29;24.43;;;23.03;;
16804;SDS011;8520;50.102;20.010;2023-02-01T04:20:57;24.03;;;22.73;;
16804;SDS011;8520;50.102;20.010;2023-02-01T04:23:25;24.03;;;22.53;;
16804;SDS011;8520;50.102;20.010;2023-02-01T04:25:53;23.40;;;22.13;;
16804;SDS011;8520;50.102;20.010;2023-02-01T04:28:23;22.60;;;21.50;;
16804;SDS011;8520;50.102;20.010;2023-02-01T04:30:51;21.70;;;20.70;;
16804;SDS011;8520;50.102;20.010;2023-02-01T04:33:20;22.10;;;21.00;;
16804;SDS011;8520;50.102;20.010;2023-02-01T04:35:48;21.50;;;20.50;;
16804;SDS011;8520;50.102;20.010;2023-02-01T04:38:16;20.80;;;19.70;;
16804;SDS011;8520;50.102;20.010;2023-02-01T04:40:46;21.20;;;20.10;;
16804;SDS011;8520;50.102;20.010;2023-02-01T04:43:15;21.70;;;20.60;;
16804;SDS011;8520;50.102;20.010;2023-02-01T04:45:48;21.20;;;20.10;;
16804;SDS011;8520;50.102;20.010;2023-02-01T04:48:17;21.00;;;20.00;;
16804;SDS011;8520;50.102;20.010;2023-02-01T04:50:50;20.97;;;19.93;;
16804;SDS011;8520;50.102;20.010;2023-02-01T04:53:18;21.03;;;19.93;;
16804;SDS011;8520;50.102;20.010;2023-02-01T04:55:47;20.80;;;19.80;;
16804;SDS011;8520;50.102;20.010;2023-02-01T04:58:16;20.90;;;19.97;;
16804;SDS011;8520;50.102;20.010;2023-02-01T05:00:44;21.07;;;20.00;;
16804;SDS011;8520;50.102;20.010;2023-02-01T05:03:13;20.57;;;19.57;;
16804;SDS011;8520;50.102;20.010;2023-02-01T05:05:41;20.87;;;19.73;;
16804;SDS011;8520;50.102;20.010;2023-02-01T05:08:09;20.70;;;19.53;;
16804;SDS011;8520;50.102;20.010;2023-02-01T05:10:37;20.57;;;19.57;;
16804;SDS011;8520;50.102;20.010;2023-02-01T05:13:06;20.90;;;19.80;;
16804;SDS011;8520;50.102;20.010;2023-02-01T05:15:52;22.03;;;20.93;;
16804;SDS011;8520;50.102;20.010;2023-02-01T05:18:22;20.97;;;19.87;;
16804;SDS011;8520;50.102;20.010;2023-02-01T05:20:50;21.23;;;20.03;;
16804;SDS011;8520;50.102;20.010;2023-02-01T05:23:18;20.50;;;19.60;;
16804;SDS011;8520;50.102;20.010;2023-02-01T05:25:46;20.00;;;18.90;;
16804;SDS011;8520;50.102;20.010;2023-02-01T05:28:14;20.07;;;19.03;;
16804;SDS011;8520;50.102;20.010;2023-02-01T05:30:42;20.53;;;19.53;;
16804;SDS011;8520;50.102;20.010;2023-02-01T05:33:10;20.17;;;19.07;;
16804;SDS011;8520;50.102;20.010;2023-02-01T05:35:40;20.30;;;19.23;;
16804;SDS011;8520;50.102;20.010;2023-02-01T05:38:08;19.77;;;18.77;;
16804;SDS011;8520;50.102;20.010;2023-02-01T05:40:36;19.77;;;18.77;;
16804;SDS011;8520;50.102;20.010;2023-02-01T05:43:04;19.97;;;19.00;;
16804;SDS011;8520;50.102;20.010;2023-02-01T05:45:32;21.00;;;19.80;;
16804;SDS011;8520;50.102;20.010;2023-02-01T05:48:01;21.47;;;20.37;;
16804;SDS011;8520;50.102;20.010;2023-02-01T05:50:29;21.53;;;20.33;;
16804;SDS011;8520;50.102;20.010;2023-02-01T05:52:58;21.10;;;19.93;;
16804;SDS011;8520;50.102;20.010;2023-02-01T05:55:26;21.10;;;20.00;;
16804;SDS011;8520;50.102;20.010;2023-02-01T05:57:54;21.03;;;20.03;;
16804;SDS011;8520;50.102;20.010;2023-02-01T06:00:22;21.03;;;19.93;;
16804;SDS011;8520;50.102;20.010;2023-02-01T06:02:51;21.23;;;20.23;;
16804;SDS011;8520;50.102;20.010;2023-02-01T06:05:20;20.30;;;19.30;;
16804;SDS011;8520;50.102;20.010;2023-02-01T06:07:48;20.90;;;19.80;;
16804;SDS011;8520;50.102;20.010;2023-02-01T06:10:18;21.20;;;20.10;;
16804;SDS011;8520;50.102;20.010;2023-02-01T06:12:47;22.07;;;20.67;;
16804;SDS011;8520;50.102;20.010;2023-02-01T06:15:15;21.10;;;20.00;;
16804;SDS011;8520;50.102;20.010;2023-02-01T06:17:44;21.40;;;20.27;;
16804;SDS011;8520;50.102;20.010;2023-02-01T06:20:14;20.70;;;19.60;;
16804;SDS011;8520;50.102;20.010;2023-02-01T06:22:42;21.43;;;20.13;;
16804;SDS011;8520;50.102;20.010;2023-02-01T06:25:10;21.00;;;19.73;;
16804;SDS011;8520;50.102;20.010;2023-02-01T06:27:40;20.73;;;19.63;;
16804;SDS011;8520;50.102;20.010;2023-02-01T06:30:08;20.87;;;19.77;;
16804;SDS011;8520;50.102;20.010;2023-02-01T06:32:40;21.80;;;20.50;;
16804;SDS011;8520;50.102;20.010;2023-02-01T06:35:08;21.63;;;20.33;;
16804;SDS011;8520;50.102;20.010;2023-02-01T06:37:42;21.23;;;20.03;;
16804;SDS011;8520;50.102;20.010;2023-02-01T06:40:11;21.33;;;20.10;;
16804;SDS011;8520;50.102;20.010;2023-02-01T06:42:41;20.97;;;19.63;;
16804;SDS011;8520;50.102;20.010;2023-02-01T06:45:09;20.77;;;19.47;;
16804;SDS011;8520;50.102;20.010;2023-02-01T06:47:38;20.97;;;19.53;;
16804;SDS011;8520;50.102;20.010;2023-02-01T06:50:06;20.07;;;18.77;;
16804;SDS011;8520;50.102;20.010;2023-02-01T06:52:35;20.10;;;18.90;;
16804;SDS011;8520;50.102;20.010;2023-02-01T06:55:04;19.60;;;18.40;;
16804;SDS011;8520;50.102;20.010;2023-02-01T06:57:32;20.10;;;18.67;;
16804;SDS011;8520;50.102;20.010;2023-02-01T07:00:04;19.83;;;18.40;;
16804;SDS011;8520;50.102;20.010;2023-02-01T07:02:32;19.53;;;18.23;;
16804;SDS011;8520;50.102;20.010;2023-02-01T07:05:01;18.90;;;17.60;;
16804;SDS011;8520;50.102;20.010;2023-02-01T07:07:29;17.87;;;16.77;;
16804;SDS011;8520;50.102;20.010;2023-02-01T07:09:57;17.77;;;16.50;;
16804;SDS011;8520;50.102;20.010;2023-02-01T07:12:25;17.00;;;15.70;;
16804;SDS011;8520;50.102;20.010;2023-02-01T07:14:53;16.30;;;15.00;;
16804;SDS011;8520;50.102;20.010;2023-02-01T07:17:22;16.73;;;15.50;;
16804;SDS011;8520;50.102;20.010;2023-02-01T07:19:51;14.87;;;13.90;;
16804;SDS011;8520;50.102;20.010;2023-02-01T07:22:19;15.37;;;14.17;;
16804;SDS011;8520;50.102;20.010;2023-02-01T07:24:47;14.83;;;13.73;;
16804;SDS011;8520;50.102;20.010;2023-02-01T07:27:15;14.97;;;13.73;;
16804;SDS011;8520;50.102;20.010;2023-02-01T07:29:43;15.00;;;14.00;;
16804;SDS011;8520;50.102;20.010;2023-02-01T07:32:11;14.43;;;13.23;;
16804;SDS011;8520;50.102;20.010;2023-02-01T07:34:41;14.50;;;13.00;;
16804;SDS011;8520;50.102;20.010;2023-02-01T07:37:09;14.23;;;13.00;;
16804;SDS011;8520;50.102;20.010;2023-02-01T07:39:37;13.50;;;12.47;;
16804;SDS011;8520;50.102;20.010;2023-02-01T07:42:05;13.20;;;12.13;;
16804;SDS011;8520;50.102;20.010;2023-02-01T07:44:33;12.43;;;11.43;;
16804;SDS011;8520;50.102;20.010;2023-02-01T07:47:02;12.40;;;11.40;;
16804;SDS011;8520;50.102;20.010;2023-02-01T07:49:30;12.77;;;11.67;;
16804;SDS011;8520;50.102;20.010;2023-02-01T07:51:59;12.37;;;11.47;;
16804;SDS011;8520;50.102;20.010;2023-02-01T07:54:27;11.10;;;10.40;;
16804;SDS011;8520;50.102;20.010;2023-02-01T07:56:55;11.70;;;10.63;;
16804;SDS011;8520;50.102;20.010;2023-02-01T07:59:24;11.70;;;10.70;;
16804;SDS011;8520;50.102;20.010;2023-02-01T08:01:52;10.37;;;9.57;;
16804;SDS011;8520;50.102;20.010;2023-02-01T08:04:19;11.60;;;10.63;;
16804;SDS011;8520;50.102;20.010;2023-02-01T08:06:47;10.60;;;9.70;;
16804;SDS011;8520;50.102;20.010;2023-02-01T08:09:16;11.33;;;10.23;;
16804;SDS011;8520;50.102;20.010;2023-02-01T08:11:44;10.83;;;10.00;;
16804;SDS011;8520;50.102;20.010;2023-02-01T08:14:13;11.20;;;10.20;;
16804;SDS011;8520;50.102;20.010;2023-02-01T08:16:41;11.67;;;10.50;;
16804;SDS011;8520;50.102;20.010;2023-02-01T08:19:09;10.33;;;9.43;;
16804;SDS011;8520;50.102;20.010;2023-02-01T08:21:37;10.57;;;9.70;;
16804;SDS011;8520;50.102;20.010;2023-02-01T08:24:06;10.37;;;9.60;;
16804;SDS011;8520;50.102;20.010;2023-02-01T08:26:38;10.50;;;9.60;;
16804;SDS011;8520;50.102;20.010;2023-02-01T08:29:07;10.40;;;9.40;;
16804;SDS011;8520;50.102;20.010;2023-02-01T08:31:37;11.10;;;10.00;;
16804;SDS011;8520;50.102;20.010;2023-02-01T08:34:07;11.00;;;9.90;;
16804;SDS011;8520;50.102;20.010;2023-02-01T08:36:36;10.30;;;9.50;;
16804;SDS011;8520;50.102;20.010;2023-02-01T08:39:04;10.73;;;9.73;;
16804;SDS011;8520;50.102;20.010;2023-02-01T08:41:35;10.40;;;9.60;;
16804;SDS011;8520;50.102;20.010;2023-02-01T08:44:05;10.17;;;9.47;;
16804;SDS011;8520;50.102;20.010;2023-02-01T08:46:33;11.03;;;10.03;;
16804;SDS011;8520;50.102;20.010;2023-02-01T08:49:01;10.90;;;9.93;;
16804;SDS011;8520;50.102;20.010;2023-02-01T08:51:29;10.47;;;9.67;;
16804;SDS011;8520;50.102;20.010;2023-02-01T08:53:57;11.10;;;10.10;;
16804;SDS011;8520;50.102;20.010;2023-02-01T08:56:25;10.90;;;9.90;;
16804;SDS011;8520;50.102;20.010;2023-02-01T08:58:53;10.70;;;9.80;;
16804;SDS011;8520;50.102;20.010;2023-02-01T09:01:23;11.13;;;10.23;;
16804;SDS011;8520;50.102;20.010;2023-02-01T09:03:51;10.23;;;9.43;;
16804;SDS011;8520;50.102;20.010;2023-02-01T09:06:19;11.10;;;10.10;;
16804;SDS011;8520;50.102;20.010;2023-02-01T09:08:47;10.43;;;9.37;;
16804;SDS011;8520;50.102;20.010;2023-02-01T09:11:16;9.50;;;8.77;;
16804;SDS011;8520;50.102;20.010;2023-02-01T09:13:46;10.07;;;9.20;;
16804;SDS011;8520;50.102;20.010;2023-02-01T09:16:15;10.13;;;9.10;;
16804;SDS011;8520;50.102;20.010;2023-02-01T09:18:44;10.00;;;9.10;;
16804;SDS011;8520;50.102;20.010;2023-02-01T09:21:21;10.00;;;9.10;;
16804;SDS011;8520;50.102;20.010;2023-02-01T09:23:50;9.70;;;8.83;;
16804;SDS011;8520;50.102;20.010;2023-02-01T09:26:18;9.97;;;8.90;;
16804;SDS011;8520;50.102;20.010;2023-02-01T09:28:56;9.53;;;8.73;;
16804;SDS011;8520;50.102;20.010;2023-02-01T09:31:24;10.00;;;9.20;;
16804;SDS011;8520;50.102;20.010;2023-02-01T09:33:54;9.87;;;9.03;;
16804;SDS011;8520;50.102;20.010;2023-02-01T09:36:22;10.00;;;9.20;;
16804;SDS011;8520;50.102;20.010;2023-02-01T09:38:50;9.93;;;9.03;;
16804;SDS011;8520;50.102;20.010;2023-02-01T09:41:24;9.53;;;8.50;;
16804;SDS011;8520;50.102;20.010;2023-02-01T09:44:01;9.97;;;9.07;;
16804;SDS011;8520;50.102;20.010;2023-02-01T09:46:35;9.57;;;8.77;;
16804;SDS011;8520;50.102;20.010;2023-02-01T09:49:08;8.60;;;8.00;;
16804;SDS011;8520;50.102;20.010;2023-02-01T09:51:42;8.90;;;8.20;;
16804;SDS011;8520;50.102;20.010;2023-02-01T09:54:13;9.03;;;8.23;;
16804;SDS011;8520;50.102;20.010;2023-02-01T09:56:46;8.33;;;7.63;;
16804;SDS011;8520;50.102;20.010;2023-02-01T09:59:21;9.13;;;8.23;;
16804;SDS011;8520;50.102;20.010;2023-02-01T10:01:58;8.80;;;7.83;;
16804;SDS011;8520;50.102;20.010;2023-02-01T10:04:29;8.37;;;7.67;;
16804;SDS011;8520;50.102;20.010;2023-02-01T10:07:02;8.30;;;7.60;;
16804;SDS011;8520;50.102;20.010;2023-02-01T10:09:42;8.10;;;7.47;;
16804;SDS011;8520;50.102;20.010;2023-02-01T10:15:35;7.90;;;7.20;;
16804;SDS011;8520;50.102;20.010;2023-02-01T10:18:19;7.33;;;6.70;;
16804;SDS011;8520;50.102;20.010;2023-02-01T10:21:02;7.03;;;6.20;;
16804;SDS011;8520;50.102;20.010;2023-02-01T10:23:50;7.07;;;6.37;;
16804;SDS011;8520;50.102;20.010;2023-02-01T10:26:44;7.50;;;6.90;;
16804;SDS011;8520;50.102;20.010;2023-02-01T10:29:16;7.00;;;6.50;;
16804;SDS011;8520;50.102;20.010;2023-02-01T10:31:47;7.37;;;6.67;;
16804;SDS011;8520;50.102;20.010;2023-02-01T10:34:17;8.03;;;7.37;;
16804;SDS011;8520;50.102;20.010;2023-02-01T10:36:56;8.10;;;7.30;;
16804;SDS011;8520;50.102;20.010;2023-02-01T10:39:28;8.00;;;7.40;;
16804;SDS011;8520;50.102;20.010;2023-02-01T10:41:56;8.13;;;7.43;;
16804;SDS011;8520;50.102;20.010;2023-02-01T10:44:25;7.43;;;6.93;;
16804;SDS011;8520;50.102;20.010;2023-02-01T10:46:55;7.70;;;7.20;;
16804;SDS011;8520;50.102;20.010;2023-02-01T10:49:24;8.20;;;7.60;;
16804;SDS011;8520;50.102;20.010;2023-02-01T10:52:00;8.33;;;7.73;;
16804;SDS011;8520;50.102;20.010;2023-02-01T10:54:35;8.80;;;8.10;;
16804;SDS011;8520;50.102;20.010;2023-02-01T10:57:06;9.30;;;8.60;;
16804;SDS011;8520;50.102;20.010;2023-02-01T10:59:36;9.70;;;9.00;;
16804;SDS011;8520;50.102;20.010;2023-02-01T11:02:11;9.10;;;8.40;;
16804;SDS011;8520;50.102;20.010;2023-02-01T11:04:46;9.57;;;8.77;;
16804;SDS011;8520;50.102;20.010;2023-02-01T11:07:17;10.23;;;9.53;;
16804;SDS011;8520;50.102;20.010;2023-02-01T11:09:51;10.50;;;9.60;;
16804;SDS011;8520;50.102;20.010;2023-02-01T11:12:28;10.23;;;9.17;;
16804;SDS011;8520;50.102;20.010;2023-02-01T11:14:58;11.53;;;9.17;;
16804;SDS011;8520;50.102;20.010;2023-02-01T11:17:33;9.83;;;9.10;;
16804;SDS011;8520;50.102;20.010;2023-02-01T11:20:12;10.53;;;9.83;;
16804;SDS011;8520;50.102;20.010;2023-02-01T11:22:46;9.80;;;9.00;;
16804;SDS011;8520;50.102;20.010;2023-02-01T11:25:16;10.57;;;9.70;;
16804;SDS011;8520;50.102;20.010;2023-02-01T11:27:45;10.07;;;9.23;;
16804;SDS011;8520;50.102;20.010;2023-02-01T11:30:22;10.13;;;9.43;;
16804;SDS011;8520;50.102;20.010;2023-02-01T11:32:59;10.57;;;9.77;;
16804;SDS011;8520;50.102;20.010;2023-02-01T11:35:31;10.70;;;9.57;;
16804;SDS011;8520;50.102;20.010;2023-02-01T11:38:10;10.47;;;9.57;;
16804;SDS011;8520;50.102;20.010;2023-02-01T11:40:43;9.93;;;9.13;;
16804;SDS011;8520;50.102;20.010;2023-02-01T11:43:13;10.50;;;9.60;;
16804;SDS011;8520;50.102;20.010;2023-02-01T11:45:53;9.27;;;8.60;;
16804;SDS011;8520;50.102;20.010;2023-02-01T11:48:23;9.70;;;9.10;;
16804;SDS011;8520;50.102;20.010;2023-02-01T11:50:56;8.90;;;8.30;;
16804;SDS011;8520;50.102;20.010;2023-02-01T11:53:53;9.27;;;8.57;;
16804;SDS011;8520;50.102;20.010;2023-02-01T11:56:31;10.10;;;9.30;;
16804;SDS011;8520;50.102;20.010;2023-02-01T11:59:16;9.93;;;9.17;;
16804;SDS011;8520;50.102;20.010;2023-02-01T12:01:58;10.73;;;9.80;;
16804;SDS011;8520;50.102;20.010;2023-02-01T12:04:56;9.90;;;9.30;;
16804;SDS011;8520;50.102;20.010;2023-02-01T12:07:38;11.03;;;10.17;;
16804;SDS011;8520;50.102;20.010;2023-02-01T12:10:24;11.83;;;11.03;;
16804;SDS011;8520;50.102;20.010;2023-02-01T12:13:01;11.73;;;10.97;;
16804;SDS011;8520;50.102;20.010;2023-02-01T12:15:41;12.97;;;11.83;;
16804;SDS011;8520;50.102;20.010;2023-02-01T12:18:30;12.93;;;12.10;;
16804;SDS011;8520;50.102;20.010;2023-02-01T12:21:32;13.57;;;12.73;;
16804;SDS011;8520;50.102;20.010;2023-02-01T12:24:20;14.77;;;13.77;;
16804;SDS011;8520;50.102;20.010;2023-02-01T12:27:10;15.23;;;14.17;;
16804;SDS011;8520;50.102;20.010;2023-02-01T12:29:58;15.73;;;14.73;;
16804;SDS011;8520;50.102;20.010;2023-02-01T12:32:51;15.83;;;14.73;;
16804;SDS011;8520;50.102;20.010;2023-02-01T12:35:40;16.13;;;15.07;;
16804;SDS011;8520;50.102;20.010;2023-02-01T12:38:21;16.90;;;15.70;;
16804;SDS011;8520;50.102;20.010;2023-02-01T12:41:10;17.17;;;15.87;;
16804;SDS011;8520;50.102;20.010;2023-02-01T12:43:53;16.90;;;15.70;;
16804;SDS011;8520;50.102;20.010;2023-02-01T12:46:25;17.20;;;16.00;;
16804;SDS011;8520;50.102;20.010;2023-02-01T12:49:00;16.67;;;15.57;;
16804;SDS011;8520;50.102;20.010;2023-02-01T12:51:32;16.43;;;15.13;;
16804;SDS011;8520;50.102;20.010;2023-02-01T12:54:05;15.77;;;14.67;;
16804;SDS011;8520;50.102;20.010;2023-02-01T12:56:41;15.17;;;14.00;;
16804;SDS011;8520;50.102;20.010;2023-02-01T12:59:16;14.87;;;13.80;;
16804;SDS011;8520;50.102;20.010;2023-02-01T13:01:49;14.30;;;13.20;;
16804;SDS011;8520;50.102;20.010;2023-02-01T13:04:25;12.77;;;11.97;;
16804;SDS011;8520;50.102;20.010;2023-02-01T13:06:59;12.40;;;11.50;;
16804;SDS011;8520;50.102;20.010;2023-02-01T13:09:36;12.97;;;11.87;;
16804;SDS011;8520;50.102;20.010;2023-02-01T13:12:12;12.73;;;11.77;;
16804;SDS011;8520;50.102;20.010;2023-02-01T13:14:46;13.03;;;11.83;;
16804;SDS011;8520;50.102;20.010;2023-02-01T13:17:19;13.43;;;12.43;;
16804;SDS011;8520;50.102;20.010;2023-02-01T13:19:52;12.77;;;11.67;;
16804;SDS011;8520;50.102;20.010;2023-02-01T13:22:25;12.83;;;11.80;;
16804;SDS011;8520;50.102;20.010;2023-02-01T13:24:56;11.97;;;11.27;;
16804;SDS011;8520;50.102;20.010;2023-02-01T13:27:27;12.70;;;11.53;;
16804;SDS011;8520;50.102;20.010;2023-02-01T13:29:58;13.07;;;12.17;;
16804;SDS011;8520;50.102;20.010;2023-02-01T13:32:35;12.80;;;11.80;;
16804;SDS011;8520;50.102;20.010;2023-02-01T13:35:41;12.87;;;12.00;;
16804;SDS011;8520;50.102;20.010;2023-02-01T13:38:33;12.53;;;11.63;;
16804;SDS011;8520;50.102;20.010;2023-02-01T13:41:19;13.80;;;12.77;;
16804;SDS011;8520;50.102;20.010;2023-02-01T13:43:55;12.60;;;11.67;;
16804;SDS011;8520;50.102;20.010;2023-02-01T13:46:28;13.43;;;12.53;;
16804;SDS011;8520;50.102;20.010;2023-02-01T13:48:58;12.40;;;11.50;;
16804;SDS011;8520;50.102;20.010;2023-02-01T13:51:33;11.87;;;11.07;;
16804;SDS011;8520;50.102;20.010;2023-02-01T13:54:04;12.30;;;11.50;;
16804;SDS011;8520;50.102;20.010;2023-02-01T13:56:40;12.87;;;11.97;;
16804;SDS011;8520;50.102;20.010;2023-02-01T14:02:42;12.30;;;11.53;;
16804;SDS011;8520;50.102;20.010;2023-02-01T14:08:22;13.37;;;12.33;;
16804;SDS011;8520;50.102;20.010;2023-02-01T14:11:03;13.90;;;12.90;;
16804;SDS011;8520;50.102;20.010;2023-02-01T14:13:32;12.80;;;11.97;;
16804;SDS011;8520;50.102;20.010;2023-02-01T14:16:12;13.37;;;12.33;;
16804;SDS011;8520;50.102;20.010;2023-02-01T14:18:56;12.43;;;11.73;;
16804;SDS011;8520;50.102;20.010;2023-02-01T14:21:28;12.97;;;11.97;;
16804;SDS011;8520;50.102;20.010;2023-02-01T14:23:59;13.17;;;12.27;;
16804;SDS011;8520;50.102;20.010;2023-02-01T14:26:41;13.93;;;13.03;;
16804;SDS011;8520;50.102;20.010;2023-02-01T14:32:00;13.40;;;12.40;;
16804;SDS011;8520;50.102;20.010;2023-02-01T14:34:38;13.17;;;12.07;;
16804;SDS011;8520;50.102;20.010;2023-02-01T14:37:24;12.80;;;11.80;;
16804;SDS011;8520;50.102;20.010;2023-02-01T14:39:56;12.00;;;11.30;;
16804;SDS011;8520;50.102;20.010;2023-02-01T14:42:28;11.90;;;11.20;;
16804;SDS011;8520;50.102;20.010;2023-02-01T14:51:13;13.30;;;12.30;;
16804;SDS011;8520;50.102;20.010;2023-02-01T14:53:44;13.03;;;12.33;;
16804;SDS011;8520;50.102;20.010;2023-02-01T14:56:14;13.90;;;13.10;;
16804;SDS011;8520;50.102;20.010;2023-02-01T14:58:48;14.13;;;13.33;;
16804;SDS011;8520;50.102;20.010;2023-02-01T15:01:24;13.80;;;13.10;;
16804;SDS011;8520;50.102;20.010;2023-02-01T15:03:58;14.37;;;13.60;;
16804;SDS011;8520;50.102;20.010;2023-02-01T15:06:33;14.83;;;14.03;;
16804;SDS011;8520;50.102;20.010;2023-02-01T15:09:07;14.63;;;13.93;;
16804;SDS011;8520;50.102;20.010;2023-02-01T15:14:47;15.67;;;14.93;;
16804;SDS011;8520;50.102;20.010;2023-02-01T15:17:31;17.20;;;16.37;;
16804;SDS011;8520;50.102;20.010;2023-02-01T15:20:02;17.70;;;16.83;;
16804;SDS011;8520;50.102;20.010;2023-02-01T15:22:40;18.97;;;18.17;;